createdAt,value
2023-05-15T00:01:45.256Z,7.57
2023-05-15T00:04:11.720Z,9.18
2023-05-15T00:06:38.135Z,8.60
2023-05-15T00:09:04.489Z,8.75
2023-05-15T00:11:30.862Z,8.32
2023-05-15T00:13:57.182Z,9.52
2023-05-15T00:16:24.225Z,8.48
2023-05-15T00:18:50.617Z,11.60
2023-05-15T00:21:17.093Z,9.80
2023-05-15T00:23:43.597Z,8.93
2023-05-15T00:26:09.928Z,8.52
2023-05-15T00:28:36.252Z,12.85
2023-05-15T00:31:02.614Z,7.78
2023-05-15T00:33:28.957Z,7.78
2023-05-15T00:35:55.228Z,8.30
2023-05-15T00:38:21.468Z,8.10
2023-05-15T00:40:48.472Z,8.90
2023-05-15T00:43:15.224Z,8.55
2023-05-15T00:45:42.178Z,13.23
2023-05-15T00:48:09.882Z,9.07
2023-05-15T00:50:36.410Z,7.43
2023-05-15T00:53:03.556Z,8.02
2023-05-15T00:55:31.108Z,12.20
2023-05-15T00:58:00.874Z,10.02
2023-05-15T01:00:27.724Z,9.88
2023-05-15T01:02:54.515Z,10.63
2023-05-15T01:05:20.952Z,7.85
2023-05-15T01:07:52.770Z,10.82
2023-05-15T01:10:19.706Z,9.32
2023-05-15T01:12:47.288Z,7.80
2023-05-15T01:15:13.649Z,8.15
2023-05-15T01:17:40.408Z,9.63
2023-05-15T01:20:09.384Z,11.60
2023-05-15T01:22:42.366Z,9.27
2023-05-15T01:25:29.579Z,9.00
2023-05-15T01:27:57.742Z,8.85
2023-05-15T01:30:24.001Z,8.10
2023-05-15T01:32:53.376Z,9.40
2023-05-15T01:35:33.061Z,10.50
2023-05-15T01:38:04.477Z,9.68
2023-05-15T01:40:30.821Z,8.00
2023-05-15T01:42:59.784Z,11.93
2023-05-15T01:45:27.006Z,9.00
2023-05-15T01:47:54.395Z,8.73
2023-05-15T01:50:21.348Z,9.15
2023-05-15T01:52:53.454Z,9.55
2023-05-15T01:55:22.227Z,12.20
2023-05-15T01:57:50.256Z,10.02
2023-05-15T02:00:17.059Z,8.05
2023-05-15T02:02:43.706Z,8.75
2023-05-15T02:05:10.194Z,8.88
2023-05-15T02:07:37.104Z,11.18
2023-05-15T02:10:03.579Z,10.50
2023-05-15T02:12:30.702Z,8.95
2023-05-15T02:14:57.989Z,9.93
2023-05-15T02:17:24.323Z,8.75
2023-05-15T02:19:50.798Z,9.43
2023-05-15T02:22:17.155Z,9.90
2023-05-15T02:24:43.429Z,8.75
2023-05-15T02:27:27.256Z,8.38
2023-05-15T02:30:19.045Z,9.02
2023-05-15T02:32:59.370Z,9.30
2023-05-15T02:35:33.471Z,8.93
2023-05-15T02:38:01.200Z,7.90
2023-05-15T02:40:28.576Z,9.38
2023-05-15T02:42:55.376Z,8.13
2023-05-15T02:45:22.171Z,8.38
2023-05-15T02:47:50.455Z,8.90
2023-05-15T02:50:17.224Z,6.97
2023-05-15T02:52:43.816Z,7.70
2023-05-15T02:55:10.406Z,6.95
2023-05-15T02:57:36.752Z,8.38
2023-05-15T03:00:06.613Z,8.20
2023-05-15T03:02:33.021Z,7.60
2023-05-15T03:04:59.350Z,7.25
2023-05-15T03:07:25.835Z,8.02
2023-05-15T03:09:52.145Z,7.53
2023-05-15T03:12:18.413Z,7.85
2023-05-15T03:14:44.692Z,7.43
2023-05-15T03:17:11.174Z,7.80
2023-05-15T03:19:37.480Z,8.10
2023-05-15T03:22:04.046Z,8.88
2023-05-15T03:24:30.524Z,7.07
2023-05-15T03:26:56.831Z,8.88
2023-05-15T03:29:23.186Z,7.30
2023-05-15T03:31:49.543Z,8.00
2023-05-15T03:34:15.950Z,8.65
2023-05-15T03:36:42.263Z,7.40
2023-05-15T03:39:08.842Z,9.55
2023-05-15T03:41:35.184Z,7.10
2023-05-15T03:44:01.568Z,8.25
2023-05-15T03:46:27.894Z,8.05
2023-05-15T03:48:54.811Z,8.38
2023-05-15T03:51:21.317Z,8.48
2023-05-15T03:53:47.592Z,9.35
2023-05-15T03:56:13.876Z,9.65
2023-05-15T03:58:40.860Z,7.97
2023-05-15T04:01:08.014Z,7.57
2023-05-15T04:03:34.456Z,9.68
2023-05-15T04:06:00.781Z,7.53
2023-05-15T04:08:27.038Z,8.20
2023-05-15T04:10:53.545Z,8.43
2023-05-15T04:13:19.831Z,8.77
2023-05-15T04:15:46.559Z,9.25
2023-05-15T04:18:12.870Z,9.98
2023-05-15T04:20:39.191Z,12.30
2023-05-15T04:23:05.736Z,10.50
2023-05-15T04:25:32.347Z,11.82
2023-05-15T04:27:58.666Z,10.80
2023-05-15T04:30:25.021Z,10.73
2023-05-15T04:32:54.360Z,11.85
2023-05-15T04:35:20.755Z,10.45
2023-05-15T04:37:47.572Z,12.30
2023-05-15T04:40:16.237Z,11.45
2023-05-15T04:42:42.656Z,12.48
2023-05-15T04:45:09.432Z,11.57
2023-05-15T04:47:35.881Z,11.27
2023-05-15T04:50:02.201Z,11.75
2023-05-15T04:52:28.573Z,12.02
2023-05-15T04:54:55.782Z,12.13
2023-05-15T04:57:22.323Z,13.38
2023-05-15T04:59:48.661Z,11.30
2023-05-15T05:02:14.979Z,11.90
2023-05-15T05:04:42.447Z,11.80
2023-05-15T05:07:08.871Z,10.55
2023-05-15T05:09:35.128Z,11.10
2023-05-15T05:12:02.267Z,12.50
2023-05-15T05:14:28.711Z,14.88
2023-05-15T05:16:55.060Z,15.40
2023-05-15T05:19:21.393Z,14.50
2023-05-15T05:21:47.693Z,14.18
2023-05-15T05:24:13.979Z,15.20
2023-05-15T05:26:43.287Z,14.27
2023-05-15T05:29:09.600Z,10.80
2023-05-15T05:31:35.961Z,15.10
2023-05-15T05:34:02.340Z,14.25
2023-05-15T05:36:28.642Z,13.13
2023-05-15T05:38:55.046Z,14.50
2023-05-15T05:41:21.650Z,14.60
2023-05-15T05:43:47.934Z,13.50
2023-05-15T05:46:14.378Z,15.00
2023-05-15T05:48:40.718Z,13.60
2023-05-15T05:51:06.984Z,15.38
2023-05-15T05:53:33.310Z,15.30
2023-05-15T05:55:59.586Z,17.42
2023-05-15T05:58:26.570Z,16.42
2023-05-15T06:00:53.206Z,15.98
2023-05-15T06:03:20.239Z,17.65
2023-05-15T06:05:46.731Z,15.32
2023-05-15T06:08:13.046Z,18.40
2023-05-15T06:10:39.941Z,17.98
2023-05-15T06:13:06.567Z,16.30
2023-05-15T06:15:32.874Z,20.27
2023-05-15T06:17:59.246Z,15.18
2023-05-15T06:20:25.832Z,17.60
2023-05-15T06:22:52.264Z,17.52
2023-05-15T06:25:18.884Z,15.95
2023-05-15T06:27:45.177Z,17.08
2023-05-15T06:30:12.171Z,17.05
2023-05-15T06:32:38.512Z,15.77
2023-05-15T06:35:05.344Z,18.15
2023-05-15T06:37:31.723Z,20.08
2023-05-15T06:39:58.050Z,20.67
2023-05-15T06:42:24.384Z,20.20
2023-05-15T06:44:50.728Z,20.55
2023-05-15T06:47:17.034Z,18.20
2023-05-15T06:49:43.347Z,19.08
2023-05-15T06:52:09.811Z,19.27
2023-05-15T06:54:36.223Z,18.50
2023-05-15T06:57:02.557Z,19.73
2023-05-15T06:59:28.893Z,19.00
2023-05-15T07:01:56.102Z,20.88
2023-05-15T07:04:23.632Z,18.90
2023-05-15T07:06:50.269Z,19.30
2023-05-15T07:09:16.853Z,20.90
2023-05-15T07:11:43.197Z,22.90
2023-05-15T07:14:09.758Z,20.23
2023-05-15T07:16:36.071Z,20.33
2023-05-15T07:19:02.682Z,23.88
2023-05-15T07:21:29.049Z,23.45
2023-05-15T07:23:55.401Z,20.25
2023-05-15T07:26:32.832Z,25.23
2023-05-15T07:29:04.015Z,23.00
2023-05-15T07:31:31.440Z,25.55
2023-05-15T07:33:57.869Z,24.13
2023-05-15T07:36:24.264Z,23.25
2023-05-15T07:38:50.589Z,22.77
2023-05-15T07:41:16.968Z,24.48
2023-05-15T07:43:43.245Z,25.92
2023-05-15T07:46:09.589Z,26.08
2023-05-15T07:48:35.910Z,28.27
2023-05-15T07:51:02.417Z,28.35
2023-05-15T07:53:28.831Z,24.77
2023-05-15T07:55:55.128Z,25.58
2023-05-15T07:58:21.549Z,27.52
2023-05-15T08:00:47.872Z,24.73
2023-05-15T08:03:14.385Z,23.83
2023-05-15T08:05:40.960Z,25.67
2023-05-15T08:08:09.426Z,24.60
2023-05-15T08:10:35.735Z,25.55
2023-05-15T08:13:02.079Z,28.13
2023-05-15T08:15:29.245Z,27.05
2023-05-15T08:17:55.595Z,28.20
2023-05-15T08:20:21.900Z,26.55
2023-05-15T08:22:48.270Z,27.13
2023-05-15T08:25:14.546Z,27.80
2023-05-15T08:27:40.854Z,29.30
2023-05-15T08:30:07.505Z,29.95
2023-05-15T08:32:33.883Z,26.00
2023-05-15T08:35:00.229Z,25.95
2023-05-15T08:37:26.491Z,27.23
2023-05-15T08:39:52.869Z,28.23
2023-05-15T08:42:28.630Z,26.38
2023-05-15T08:44:55.773Z,30.10
2023-05-15T08:47:22.439Z,27.95
2023-05-15T08:49:57.769Z,26.10
2023-05-15T08:52:25.521Z,28.50
2023-05-15T08:54:52.346Z,28.17
2023-05-15T08:57:19.097Z,25.95
2023-05-15T08:59:46.271Z,25.58
2023-05-15T09:02:12.711Z,26.80
2023-05-15T09:04:39.112Z,26.45
2023-05-15T09:07:06.633Z,26.30
2023-05-15T09:09:34.199Z,27.58
2023-05-15T09:12:02.339Z,29.25
2023-05-15T09:14:28.617Z,27.67
2023-05-15T09:16:55.019Z,26.30
2023-05-15T09:19:22.457Z,26.42
2023-05-15T09:21:49.312Z,26.55
2023-05-15T09:24:23.358Z,26.35
2023-05-15T09:27:06.277Z,29.50
2023-05-15T09:29:33.486Z,31.83
2023-05-15T09:32:04.353Z,28.92
2023-05-15T09:34:35.167Z,31.20
2023-05-15T09:37:02.582Z,32.35
2023-05-15T09:39:28.930Z,31.27
2023-05-15T09:42:05.469Z,27.80
2023-05-15T09:44:31.841Z,29.58
2023-05-15T09:46:58.191Z,30.65
2023-05-15T09:49:24.572Z,30.13
2023-05-15T09:51:51.385Z,26.85
2023-05-15T09:54:18.724Z,27.50
2023-05-15T09:56:46.158Z,26.90
2023-05-15T09:59:13.353Z,27.35
2023-05-15T10:01:42.128Z,26.52
2023-05-15T10:04:09.106Z,26.77
2023-05-15T10:06:36.814Z,26.13
2023-05-15T10:09:03.780Z,25.98
2023-05-15T10:11:30.370Z,24.63
2023-05-15T10:13:57.629Z,23.13
2023-05-15T10:16:24.644Z,22.13
2023-05-15T10:18:51.587Z,23.35
2023-05-15T10:21:20.023Z,24.80
2023-05-15T10:23:47.624Z,22.73
2023-05-15T10:26:32.541Z,22.40
2023-05-15T10:28:59.690Z,20.90
2023-05-15T10:31:26.323Z,22.75
2023-05-15T10:33:54.170Z,22.70
2023-05-15T10:36:20.640Z,24.05
2023-05-15T10:38:47.589Z,20.25
2023-05-15T10:41:17.982Z,19.98
2023-05-15T10:43:44.622Z,23.30
2023-05-15T10:46:11.508Z,22.98
2023-05-15T10:48:38.378Z,20.42
2023-05-15T10:51:04.727Z,17.63
2023-05-15T10:53:31.918Z,17.58
2023-05-15T10:55:58.646Z,19.25
2023-05-15T10:58:25.013Z,18.35
2023-05-15T11:00:51.318Z,17.67
2023-05-15T11:03:48.006Z,17.50
2023-05-15T11:06:15.465Z,17.50
2023-05-15T11:08:42.966Z,16.00
2023-05-15T11:11:09.257Z,15.98
2023-05-15T11:13:54.238Z,15.52
2023-05-15T11:16:52.659Z,14.18
2023-05-15T11:19:28.248Z,15.18
2023-05-15T11:24:23.389Z,13.25
2023-05-15T11:26:52.093Z,12.18
2023-05-15T11:29:19.059Z,12.40
2023-05-15T11:31:45.342Z,11.45
2023-05-15T11:34:11.669Z,11.43
2023-05-15T11:36:39.844Z,11.75
2023-05-15T11:39:11.997Z,10.82
2023-05-15T11:41:39.311Z,10.73
2023-05-15T11:44:05.701Z,9.90
2023-05-15T11:46:32.968Z,10.20
2023-05-15T11:49:00.234Z,11.80
2023-05-15T11:51:27.556Z,10.13
2023-05-15T11:53:54.962Z,10.50
2023-05-15T11:56:25.811Z,10.23
2023-05-15T11:58:54.372Z,12.55
2023-05-15T12:01:20.823Z,9.45
2023-05-15T12:03:48.747Z,10.15
2023-05-15T12:06:15.453Z,10.55
2023-05-15T12:08:45.262Z,10.73
2023-05-15T12:11:12.102Z,10.38
2023-05-15T12:13:38.398Z,9.93
2023-05-15T12:16:05.232Z,10.63
2023-05-15T12:18:32.453Z,10.18
2023-05-15T12:20:59.097Z,10.40
2023-05-15T12:23:26.852Z,9.73
2023-05-15T12:25:57.758Z,9.88
2023-05-15T12:28:24.175Z,9.38
2023-05-15T12:30:50.934Z,9.38
2023-05-15T12:33:17.594Z,10.43
2023-05-15T12:35:49.486Z,9.00
2023-05-15T12:38:16.657Z,9.90
2023-05-15T12:40:43.575Z,10.77
2023-05-15T12:43:10.795Z,10.45
2023-05-15T12:45:40.637Z,11.00
2023-05-15T12:48:08.047Z,10.35
2023-05-15T12:50:35.772Z,9.50
2023-05-15T12:53:03.048Z,10.32
2023-05-15T12:55:33.474Z,10.52
2023-05-15T12:58:02.136Z,9.82
2023-05-15T13:00:29.065Z,9.68
2023-05-15T13:02:56.486Z,10.25
2023-05-15T13:05:23.427Z,10.05
2023-05-15T13:07:49.840Z,9.73
2023-05-15T13:10:16.407Z,10.80
2023-05-15T13:12:43.530Z,10.57
2023-05-15T13:15:21.702Z,10.23
2023-05-15T13:17:48.123Z,11.65
2023-05-15T13:20:14.583Z,10.80
2023-05-15T13:22:40.955Z,10.38
2023-05-15T13:25:08.601Z,10.63
2023-05-15T13:27:34.875Z,9.65
2023-05-15T13:30:01.171Z,10.65
2023-05-15T13:32:27.478Z,10.30
2023-05-15T13:34:54.958Z,12.38
2023-05-15T13:37:21.326Z,10.90
2023-05-15T13:39:47.621Z,9.73
2023-05-15T13:42:14.043Z,10.88
2023-05-15T13:44:40.552Z,9.95
2023-05-15T13:47:06.848Z,12.02
2023-05-15T13:49:33.239Z,12.23
2023-05-15T13:51:59.597Z,14.27
2023-05-15T13:54:25.997Z,12.70
2023-05-15T13:56:52.247Z,11.32
2023-05-15T13:59:18.497Z,10.85
2023-05-15T14:01:44.979Z,12.10
2023-05-15T14:04:11.271Z,14.65
2023-05-15T14:06:37.616Z,16.40
2023-05-15T14:09:04.629Z,14.98
2023-05-15T14:11:30.950Z,14.77
2023-05-15T14:13:57.242Z,14.63
2023-05-15T14:16:23.539Z,16.38
2023-05-15T14:18:53.310Z,13.32
2023-05-15T14:21:19.644Z,16.98
2023-05-15T14:23:46.066Z,13.45
2023-05-15T14:26:12.419Z,13.93
2023-05-15T14:28:41.012Z,15.07
2023-05-15T14:31:07.665Z,14.50
2023-05-15T14:33:33.911Z,13.75
2023-05-15T14:36:01.434Z,13.40
2023-05-15T14:38:27.780Z,13.48
2023-05-15T14:40:54.217Z,13.77
2023-05-15T14:43:20.811Z,13.40
2023-05-15T14:45:50.983Z,12.60
2023-05-15T14:48:17.508Z,13.05
2023-05-15T14:50:43.945Z,13.10
2023-05-15T14:53:10.293Z,12.98
2023-05-15T14:55:36.544Z,13.13
2023-05-15T14:58:02.809Z,14.55
2023-05-15T15:00:29.092Z,13.38
2023-05-15T15:02:55.505Z,13.35
2023-05-15T15:05:21.972Z,13.32
2023-05-15T15:07:57.480Z,13.57
2023-05-15T15:10:24.059Z,13.25
2023-05-15T15:12:53.125Z,14.77
2023-05-15T15:15:19.737Z,15.02
2023-05-15T15:17:46.065Z,16.55
2023-05-15T15:20:12.963Z,16.00
2023-05-15T15:22:44.975Z,15.15
2023-05-15T15:25:11.306Z,16.13
2023-05-15T15:27:37.725Z,14.70
2023-05-15T15:30:04.968Z,15.23
2023-05-15T15:32:31.358Z,16.10
2023-05-15T15:34:57.726Z,13.65
2023-05-15T15:37:24.098Z,14.85
2023-05-15T15:39:50.535Z,14.13
2023-05-15T15:42:16.790Z,16.10
2023-05-15T15:44:43.086Z,16.45
2023-05-15T15:47:09.340Z,15.15
2023-05-15T15:49:35.663Z,15.82
2023-05-15T15:52:02.139Z,15.43
2023-05-15T15:54:28.959Z,17.77
2023-05-15T15:56:55.294Z,14.73
2023-05-15T15:59:21.678Z,16.40
2023-05-15T16:01:48.231Z,22.48
2023-05-15T16:04:14.732Z,23.85
2023-05-15T16:06:41.109Z,17.65
2023-05-15T16:09:07.382Z,17.60
2023-05-15T16:11:33.698Z,16.83
2023-05-15T16:13:59.968Z,17.23
2023-05-15T16:16:26.347Z,16.65
2023-05-15T16:18:52.777Z,16.58
2023-05-15T16:21:19.108Z,15.32
2023-05-15T16:23:45.624Z,15.02
2023-05-15T16:26:11.949Z,14.02
2023-05-15T16:28:38.346Z,18.90
2023-05-15T16:31:04.870Z,14.48
2023-05-15T16:33:32.312Z,16.65
2023-05-15T16:35:58.674Z,15.52
2023-05-15T16:38:25.030Z,15.75
2023-05-15T16:40:58.550Z,13.02
2023-05-15T16:43:25.016Z,12.25
2023-05-15T16:45:51.318Z,12.35
2023-05-15T16:48:17.628Z,13.48
2023-05-15T16:50:44.188Z,13.13
2023-05-15T16:53:10.598Z,14.07
2023-05-15T16:55:38.013Z,11.60
2023-05-15T16:58:04.279Z,12.07
2023-05-15T17:00:30.733Z,12.27
2023-05-15T17:02:57.180Z,10.73
2023-05-15T17:05:23.602Z,11.85
2023-05-15T17:07:50.100Z,9.20
2023-05-15T17:10:16.489Z,9.10
2023-05-15T17:12:42.882Z,8.90
2023-05-15T17:15:09.345Z,8.95
2023-05-15T17:17:35.850Z,9.60
2023-05-15T17:20:03.062Z,8.32
2023-05-15T17:22:30.100Z,7.93
2023-05-15T17:24:58.869Z,7.35
2023-05-15T17:27:27.496Z,7.43
2023-05-15T17:29:53.922Z,8.93
2023-05-15T17:32:21.429Z,8.05
2023-05-15T17:34:49.582Z,6.82
2023-05-15T17:37:15.963Z,8.82
2023-05-15T17:39:42.574Z,9.15
2023-05-15T17:42:08.963Z,8.15
2023-05-15T17:44:35.306Z,8.88
2023-05-15T17:47:01.755Z,8.35
2023-05-15T17:49:28.156Z,8.80
2023-05-15T17:51:54.439Z,8.45
2023-05-15T17:54:20.839Z,7.95
2023-05-15T17:56:47.776Z,11.55
2023-05-15T17:59:14.139Z,9.52
2023-05-15T18:01:40.559Z,8.15
2023-05-15T18:04:06.976Z,7.13
2023-05-15T18:06:36.210Z,7.38
2023-05-15T18:09:03.094Z,9.70
2023-05-15T18:11:29.506Z,10.18
2023-05-15T18:13:55.817Z,9.68
2023-05-15T18:16:22.287Z,7.75
2023-05-15T18:18:49.369Z,8.40
2023-05-15T18:21:15.989Z,5.95
2023-05-15T18:23:42.322Z,7.72
2023-05-15T18:26:08.660Z,8.93
2023-05-15T18:28:34.987Z,11.00
2023-05-15T18:31:01.292Z,7.88
2023-05-15T18:33:28.135Z,9.02
2023-05-15T18:35:54.429Z,9.07
2023-05-15T18:38:20.988Z,6.40
2023-05-15T18:40:47.472Z,6.93
2023-05-15T18:43:14.149Z,8.00
2023-05-15T18:45:40.554Z,5.57
2023-05-15T18:48:06.905Z,8.98
2023-05-15T18:50:33.373Z,7.45
2023-05-15T18:52:59.684Z,5.35
2023-05-15T18:55:27.564Z,8.05
2023-05-15T18:57:53.982Z,4.82
2023-05-15T19:00:36.470Z,5.55
2023-05-15T19:03:05.284Z,8.13
2023-05-15T19:05:33.650Z,4.72
2023-05-15T19:08:00.047Z,7.78
2023-05-15T19:10:30.364Z,4.50
2023-05-15T19:12:57.215Z,5.55
2023-05-15T19:15:23.997Z,6.28
2023-05-15T19:17:50.623Z,5.57
2023-05-15T19:20:16.952Z,6.07
2023-05-15T19:22:43.200Z,5.03
2023-05-15T19:25:10.160Z,5.22
2023-05-15T19:27:37.515Z,4.80
2023-05-15T19:30:04.539Z,7.18
2023-05-15T19:32:31.003Z,7.57
2023-05-15T19:34:57.380Z,7.10
2023-05-15T19:37:23.658Z,6.65
2023-05-15T19:39:50.093Z,6.82
2023-05-15T19:42:16.390Z,6.65
2023-05-15T19:44:42.629Z,5.00
2023-05-15T19:47:09.703Z,5.05
2023-05-15T19:49:36.048Z,6.30
2023-05-15T19:52:02.333Z,6.90
2023-05-15T19:54:28.725Z,7.47
2023-05-15T19:56:57.639Z,6.03
2023-05-15T19:59:24.009Z,8.52
2023-05-15T20:01:50.496Z,4.95
2023-05-15T20:04:16.881Z,6.38
2023-05-15T20:06:43.148Z,4.38
2023-05-15T20:09:09.668Z,7.68
2023-05-15T20:11:36.114Z,5.95
2023-05-15T20:14:02.442Z,5.47
2023-05-15T20:16:28.778Z,6.15
2023-05-15T20:18:55.552Z,6.20
2023-05-15T20:21:22.072Z,6.38
2023-05-15T20:23:49.194Z,9.15
2023-05-15T20:26:15.490Z,7.43
2023-05-15T20:28:43.748Z,7.93
2023-05-15T20:31:11.235Z,5.63
2023-05-15T20:33:37.813Z,5.25
2023-05-15T20:36:05.251Z,5.82
2023-05-15T20:38:33.734Z,5.40
2023-05-15T20:41:00.044Z,5.18
2023-05-15T20:43:26.655Z,6.88
2023-05-15T20:45:53.040Z,6.18
2023-05-15T20:48:19.398Z,6.10
2023-05-15T20:50:45.764Z,4.72
2023-05-15T20:53:12.066Z,5.38
2023-05-15T20:55:38.454Z,7.10
2023-05-15T20:58:04.759Z,5.38
2023-05-15T21:00:31.229Z,5.22
2023-05-15T21:02:57.586Z,4.32
2023-05-15T21:05:24.052Z,4.95
2023-05-15T21:07:50.372Z,4.57
2023-05-15T21:10:16.641Z,7.40
2023-05-15T21:12:42.920Z,7.03
2023-05-15T21:15:09.589Z,5.47
2023-05-15T21:17:35.916Z,5.70
2023-05-15T21:20:04.061Z,4.45
2023-05-15T21:22:30.375Z,5.68
2023-05-15T21:24:56.621Z,4.75
2023-05-15T21:27:23.000Z,5.75
2023-05-15T21:29:49.281Z,5.45
2023-05-15T21:32:15.637Z,4.97
2023-05-15T21:34:41.951Z,5.65
2023-05-15T21:37:08.187Z,4.90
2023-05-15T21:39:34.494Z,5.18
2023-05-15T21:42:00.782Z,5.93
2023-05-15T21:44:27.074Z,5.55
2023-05-15T21:46:53.448Z,7.78
2023-05-15T21:49:19.846Z,6.65
2023-05-15T21:51:46.452Z,4.40
2023-05-15T21:54:12.785Z,6.32
2023-05-15T21:56:39.133Z,5.35
2023-05-15T21:59:05.437Z,4.75
2023-05-15T22:01:31.817Z,5.15
2023-05-15T22:03:58.282Z,4.75
2023-05-15T22:06:24.705Z,10.00
2023-05-15T22:08:51.090Z,3.72
2023-05-15T22:11:17.400Z,4.22
2023-05-15T22:13:43.765Z,5.25
2023-05-15T22:16:10.172Z,4.03
2023-05-15T22:18:37.700Z,4.30
2023-05-15T22:21:04.064Z,3.90
2023-05-15T22:23:30.393Z,7.10
2023-05-15T22:25:56.670Z,4.43
2023-05-15T22:28:23.038Z,4.72
2023-05-15T22:30:49.998Z,3.30
2023-05-15T22:33:16.742Z,5.00
2023-05-15T22:35:43.015Z,3.30
2023-05-15T22:38:09.616Z,4.30
2023-05-15T22:40:35.883Z,4.80
2023-05-15T22:43:02.635Z,4.03
2023-05-15T22:45:28.970Z,3.63
2023-05-15T22:47:55.527Z,2.90
2023-05-15T22:50:21.888Z,3.78
2023-05-15T22:52:48.309Z,2.92
2023-05-15T22:55:14.645Z,3.65
2023-05-15T22:57:40.976Z,2.83
2023-05-15T23:00:08.022Z,3.38
2023-05-15T23:02:34.721Z,2.05
2023-05-15T23:05:01.664Z,3.28
2023-05-15T23:07:27.969Z,2.65
2023-05-15T23:09:54.449Z,2.65
2023-05-15T23:12:21.028Z,2.80
2023-05-15T23:14:47.372Z,2.65
2023-05-15T23:17:13.716Z,2.67
2023-05-15T23:19:40.067Z,2.88
2023-05-15T23:22:06.391Z,2.47
2023-05-15T23:24:32.701Z,2.08
2023-05-15T23:26:59.037Z,2.65
2023-05-15T23:29:25.564Z,2.83
2023-05-15T23:31:51.928Z,9.05
2023-05-15T23:34:18.254Z,3.95
2023-05-15T23:36:44.502Z,2.35
2023-05-15T23:39:10.852Z,2.17
2023-05-15T23:41:37.193Z,2.78
2023-05-15T23:44:03.639Z,4.20
2023-05-15T23:46:29.982Z,2.83
2023-05-15T23:48:56.307Z,3.92
2023-05-15T23:51:22.724Z,3.38
2023-05-15T23:53:49.263Z,3.35
2023-05-15T23:56:15.772Z,1.83
2023-05-15T23:58:42.161Z,2.10
